Hovedside
METAR-TAF:

METAR-TAF

Lufthavner :

Halli lufthavn

Jämsä, Finland

breddegrad: 61-51N, lengdegrad: 024-48E, høyde over havet: 143 m

Gjeldene værobservasjon

Denne rapporten ble laget for 36 minutter siden, klokken 14:20 UTC
Vind 13 kt fra Vest-sørvest
Temperatur 2°C
Luftfuktighet 80%
Trykk 1014 hPa
Sikt 10 km eller mer
ingen skyer under 1500 m og ingen bygeskyer

METAR: EFHA 201420Z AUTO 24013KT CAVOK 02/M01 Q1014

Tid: 16:56 (14:56 UTC)

Varsel

Denne rapporten ble laget for 3 timer og 33 minutter siden, klokken 11:23 UTC
Varsel gyldig fra 20. klokken 12 UTC til 20. klokken 14 UTC
Vind 15 kt fra Vest-sørvest
Sikt 10 km eller mer
Spredte skyer i en høyde av 4000 ft
Midlertidig
fra 20. klokken 12 UTC til 20. klokken 14 UTC
Vind 15 kt fra Vest-sørvest med vindkast opp mot 25 kt
Sikt: 5000 m
Brutte skyer i en høyde av 800 ft
lett regn, snø

TAF: EFHA 201123Z 2012/2014 24015KT 9999 SCT040 TEMPO 2012/2014 24015G25KT 5000 -RASN BKN008

Værobservasjoner og værvarsel for over 4000 flyplasser (METAR- og TAF-rapporter).

Tilgjengelige stasjoner er representert av de røde og gule prikkene på kartet.

Hold musepekeren over prikken for å se navnet på stasjonen.

Klikk så for å se værobservasjoner og -varsler.

For å forandre kartet kan du klikke på den grønne knappen med svart kryss for å zoome inn, på den grønne knappen med strek for å zoome ut, eller på de grønne pilene for å se tilstøtende kart.


METAR-TAF: